Time;durP1;ratioP1;P1;durP2;ratioP2;P2;SDS_P1;SDS_P2;PMS_P1;PMS_P2;Temp;Humidity;BMP_temperature;BMP_pressure;BME280_temperature;BME280_humidity;BME280_pressure;Samples;Min_cycle;Max_cycle;Signal;HPM_P1;HPM_P2
2022/08/19 00:01:19;;;;;;;;;13.25;12.00;;;;;25.85;45.11;101098.03;5080895;28;47315;-54
2022/08/19 00:03:44;;;;;;;;;10.50;9.75;;;;;25.84;44.77;101099.84;5077476;28;45695;-54
2022/08/19 00:06:10;;;;;;;;;14.00;10.75;;;;;25.84;44.46;101093.66;5077169;28;45331;-52
2022/08/19 00:08:35;;;;;;;;;10.75;10.75;;;;;25.84;44.58;101097.19;5077968;28;45364;-53
2022/08/19 00:11:01;;;;;;;;;11.00;9.50;;;;;25.84;45.15;101094.53;5060989;28;47402;-54
2022/08/19 00:13:28;;;;;;;;;10.25;9.00;;;;;25.83;44.80;101098.16;5078590;28;45410;-54
2022/08/19 00:15:54;;;;;;;;;12.00;10.75;;;;;25.83;44.43;101092.84;5088904;28;45276;-54
2022/08/19 00:18:20;;;;;;;;;10.75;10.00;;;;;25.82;44.91;101099.09;5090476;28;45217;-52
2022/08/19 00:20:45;;;;;;;;;9.75;9.50;;;;;25.82;44.45;101101.75;5083698;28;45491;-55
2022/08/19 00:23:10;;;;;;;;;12.00;9.25;;;;;25.82;44.73;101099.09;5065912;28;45336;-54
2022/08/19 00:25:36;;;;;;;;;9.00;9.00;;;;;25.83;44.70;101102.59;5084175;28;47711;-55
2022/08/19 00:28:02;;;;;;;;;8.25;8.25;;;;;25.82;44.89;101103.53;5092591;28;45339;-55
2022/08/19 00:30:28;;;;;;;;;10.50;10.50;;;;;25.82;44.32;101098.25;5081742;28;46273;-53
2022/08/19 00:32:57;;;;;;;;;10.00;9.75;;;;;25.81;44.37;101097.41;5079156;28;45954;-55
2022/08/19 00:35:22;;;;;;;;;9.25;8.25;;;;;25.82;44.54;101098.25;5078642;28;45364;-54
2022/08/19 00:37:49;;;;;;;;;11.75;9.50;;;;;25.80;44.56;101106.31;5085313;28;45577;-54
2022/08/19 00:40:16;;;;;;;;;9.00;7.00;;;;;25.78;44.52;101100.28;5087923;28;45377;-55
2022/08/19 00:42:41;;;;;;;;;8.25;8.25;;;;;25.78;44.14;101101.16;5081075;28;45725;-55
2022/08/19 00:45:17;;;;;;;;;10.00;8.50;;;;;25.77;44.35;101099.44;5082494;28;45212;-55
2022/08/19 00:47:43;;;;;;;;;9.50;8.00;;;;;25.77;44.43;101102.09;5077558;28;45315;-54
2022/08/19 00:50:12;;;;;;;;;8.75;8.50;;;;;25.76;44.41;101108.38;5058140;28;46186;-54
2022/08/19 00:52:45;;;;;;;;;8.50;8.50;;;;;25.76;44.51;101104.84;5076731;28;45760;-53
2022/08/19 00:55:15;;;;;;;;;8.00;8.00;;;;;25.77;44.12;101101.25;5076924;28;45413;-54
2022/08/19 00:57:47;;;;;;;;;9.75;7.75;;;;;25.78;44.47;101101.16;5077676;28;45307;-57
2022/08/19 01:00:17;;;;;;;;;8.25;8.25;;;;;25.77;44.69;101098.59;5083055;28;46534;-54
2022/08/19 01:02:43;;;;;;;;;10.00;9.75;;;;;25.77;44.41;101103.88;5089471;28;45013;-54
2022/08/19 01:05:15;;;;;;;;;8.50;8.00;;;;;25.75;44.14;101098.72;5090252;28;45287;-54
2022/08/19 01:07:41;;;;;;;;;9.25;9.00;;;;;25.77;44.26;101096.78;5089333;28;45718;-53
2022/08/19 01:10:10;;;;;;;;;7.25;7.25;;;;;25.77;44.12;101094.13;5084722;28;45442;-54
2022/08/19 01:12:36;;;;;;;;;11.00;9.75;;;;;25.77;44.01;101099.44;5087355;28;45913;-57
2022/08/19 01:15:03;;;;;;;;;5.50;5.25;;;;;25.76;44.14;101099.53;5080118;28;45252;-53
2022/08/19 01:17:29;;;;;;;;;8.50;6.75;;;;;25.75;44.51;101095.19;5078122;28;45292;-54
2022/08/19 01:19:55;;;;;;;;;10.00;9.00;;;;;25.75;44.32;101095.19;5080602;28;45339;-56
2022/08/19 01:22:23;;;;;;;;;7.50;7.00;;;;;25.75;44.04;101096.06;5078221;28;45263;-55
2022/08/19 01:24:49;;;;;;;;;8.00;8.00;;;;;25.74;44.23;101104.13;5076219;28;45538;-53
2022/08/19 01:27:14;;;;;;;;;9.75;8.25;;;;;25.71;44.46;101091.09;5077260;28;45569;-55
2022/08/19 01:29:41;;;;;;;;;7.50;7.25;;;;;25.74;44.51;101102.31;5059911;28;47176;-53
2022/08/19 01:32:11;;;;;;;;;10.75;9.50;;;;;25.73;44.02;101097.97;5076343;28;45830;-54
2022/08/19 01:34:37;;;;;;;;;9.75;8.50;;;;;25.72;44.65;101098.09;5077318;28;45276;-54
2022/08/19 01:37:11;;;;;;;;;9.50;9.50;;;;;25.71;44.63;101101.69;5079053;28;45521;-55
2022/08/19 01:39:38;;;;;;;;;9.50;8.25;;;;;25.70;44.36;101100.84;5079545;28;46410;-54
2022/08/19 01:42:04;;;;;;;;;7.00;7.00;;;;;25.70;44.54;101098.19;5080595;28;45355;-55
2022/08/19 01:44:29;;;;;;;;;10.75;9.00;;;;;25.70;44.51;101102.66;5080320;28;45319;-54
2022/08/19 01:46:55;;;;;;;;;8.50;8.50;;;;;25.69;44.29;101100.97;5080572;28;45455;-53
2022/08/19 01:49:24;;;;;;;;;8.25;7.75;;;;;25.69;44.31;101104.44;5079978;28;46123;-51
2022/08/19 01:51:51;;;;;;;;;8.50;8.25;;;;;25.68;44.41;101105.44;5080171;28;45762;-51
2022/08/19 01:54:18;;;;;;;;;9.50;9.50;;;;;25.66;44.14;101110.00;5081042;28;45186;-52
2022/08/19 01:56:44;;;;;;;;;11.50;10.00;;;;;25.66;44.37;101117.97;5082061;28;45367;-52
2022/08/19 01:59:16;;;;;;;;;10.75;9.50;;;;;25.65;44.34;101110.97;5092405;28;45511;-55
2022/08/19 02:01:41;;;;;;;;;14.25;10.00;;;;;25.61;44.68;101102.38;5087095;28;45617;-53
2022/08/19 02:04:07;;;;;;;;;9.25;9.25;;;;;25.62;44.70;101106.72;5066850;28;45314;-54
2022/08/19 02:06:33;;;;;;;;;9.50;9.00;;;;;25.62;44.25;101109.38;5093067;28;45139;-53
2022/08/19 02:08:59;;;;;;;;;10.25;10.25;;;;;25.63;44.31;101108.41;5095442;28;45542;-52
2022/08/19 02:11:29;;;;;;;;;10.00;9.25;;;;;25.63;44.20;101108.41;5096376;28;45760;-52
2022/08/19 02:13:55;;;;;;;;;8.00;8.00;;;;;25.60;44.42;101107.78;5093840;28;44736;-52
2022/08/19 02:16:21;;;;;;;;;10.25;9.50;;;;;25.60;44.65;101111.31;5094192;28;45321;-51
2022/08/19 02:18:50;;;;;;;;;10.00;9.25;;;;;25.60;44.21;101113.09;5092175;28;45355;-55
2022/08/19 02:21:17;;;;;;;;;11.50;10.50;;;;;25.60;44.21;101102.47;5090712;28;45389;-52
2022/08/19 02:23:43;;;;;;;;;10.75;10.75;;;;;25.58;44.21;101110.56;5088740;28;45418;-53
2022/08/19 02:26:09;;;;;;;;;9.75;9.25;;;;;25.59;44.51;101106.09;5085882;28;45292;-53
2022/08/19 02:28:34;;;;;;;;;9.00;9.00;;;;;25.57;44.83;101111.50;5081410;28;45237;-54
2022/08/19 02:31:00;;;;;;;;;11.00;10.00;;;;;25.56;44.89;101115.13;5080927;28;45298;-51
2022/08/19 02:33:26;;;;;;;;;9.75;9.00;;;;;25.55;44.17;101116.09;5081527;28;45238;-55
2022/08/19 02:35:51;;;;;;;;;8.00;8.00;;;;;25.55;44.31;101124.03;5079279;28;45651;-53
2022/08/19 02:38:26;;;;;;;;;8.25;8.25;;;;;25.55;44.51;101126.69;5078284;28;46257;-51
2022/08/19 02:40:54;;;;;;;;;12.25;10.25;;;;;25.55;44.67;101115.25;5082740;28;45419;-53
2022/08/19 02:43:20;;;;;;;;;11.00;11.00;;;;;25.55;44.96;101115.25;5081482;28;45509;-52
2022/08/19 02:45:47;;;;;;;;;7.50;7.50;;;;;25.54;44.43;101113.56;5078838;28;45790;-53
2022/08/19 02:48:13;;;;;;;;;9.75;9.75;;;;;25.54;44.36;101113.56;5076814;28;45618;-52
2022/08/19 02:50:39;;;;;;;;;9.50;9.50;;;;;25.51;44.89;101114.63;5084814;28;45711;-52
2022/08/19 02:53:06;;;;;;;;;11.00;9.00;;;;;25.51;44.48;101111.97;5091842;28;45402;-51
2022/08/19 02:55:33;;;;;;;;;10.25;10.25;;;;;25.49;44.81;101108.56;5092944;28;44885;-52
2022/08/19 02:57:59;;;;;;;;;9.00;9.00;;;;;25.50;44.71;101102.31;5061370;28;46392;-51
2022/08/19 03:00:25;;;;;;;;;10.75;9.75;;;;;25.48;44.71;101106.88;5059960;28;45384;-53
2022/08/19 03:02:51;;;;;;;;;11.75;10.50;;;;;25.47;45.07;101116.63;5078121;28;45430;-53
2022/08/19 03:05:16;;;;;;;;;11.50;8.50;;;;;25.47;45.35;101113.16;5078857;28;45395;-54
2022/08/19 03:07:42;;;;;;;;;9.50;7.50;;;;;25.46;45.20;101111.44;5079716;28;46448;-53
2022/08/19 03:10:08;;;;;;;;;6.25;6.25;;;;;25.46;44.98;101111.44;5078697;28;45437;-53
2022/08/19 03:12:37;;;;;;;;;12.00;8.50;;;;;25.45;45.10;101115.91;5082748;28;45408;-53
2022/08/19 03:15:04;;;;;;;;;13.50;12.50;;;;;25.44;45.15;101108.06;5085128;28;45398;-53
2022/08/19 03:17:30;;;;;;;;;12.50;10.75;;;;;25.45;45.63;101113.28;5080694;28;45918;-55
2022/08/19 03:19:55;;;;;;;;;12.00;12.00;;;;;25.44;45.11;101113.34;5093903;28;45368;-54
2022/08/19 03:22:21;;;;;;;;;12.00;11.00;;;;;25.45;45.45;101109.75;5083815;28;45290;-53
2022/08/19 03:24:47;;;;;;;;;11.50;10.75;;;;;25.45;45.55;101107.97;5078261;28;45449;-53
2022/08/19 03:27:13;;;;;;;;;12.50;11.25;;;;;25.45;45.83;101113.28;5078850;28;46999;-53
2022/08/19 03:29:39;;;;;;;;;12.25;10.25;;;;;25.43;45.85;101112.53;5060106;28;45410;-54
2022/08/19 03:32:06;;;;;;;;;10.25;9.25;;;;;25.44;45.66;101110.69;5078278;28;45242;-54
2022/08/19 03:34:33;;;;;;;;;9.75;9.00;;;;;25.43;45.71;101109.00;5079718;28;45607;-55
2022/08/19 03:37:04;;;;;;;;;8.00;8.00;;;;;25.42;46.05;101104.66;5078867;28;46335;-55
2022/08/19 03:39:30;;;;;;;;;9.00;8.00;;;;;25.42;45.89;101099.34;5079716;28;45311;-56
2022/08/19 03:41:59;;;;;;;;;9.00;8.00;;;;;25.40;46.18;101101.25;5079055;28;45439;-56
2022/08/19 03:44:25;;;;;;;;;8.25;8.25;;;;;25.39;45.67;101107.53;5063906;28;45933;-54
2022/08/19 03:46:54;;;;;;;;;6.50;6.50;;;;;25.39;46.30;101111.00;5082753;28;46667;-56
2022/08/19 03:49:22;;;;;;;;;8.00;8.00;;;;;25.39;46.30;101104.88;5096109;28;44997;-54
2022/08/19 03:51:49;;;;;;;;;10.00;8.50;;;;;25.37;46.29;101101.47;5092076;28;45354;-53
2022/08/19 03:54:18;;;;;;;;;8.25;7.00;;;;;25.36;46.17;101105.91;5082786;28;45533;-53
2022/08/19 03:56:47;;;;;;;;;7.50;7.50;;;;;25.35;45.76;101114.84;5079077;28;45581;-54
2022/08/19 03:59:16;;;;;;;;;6.50;6.50;;;;;25.36;46.38;101107.72;5083551;28;45651;-55
2022/08/19 04:01:42;;;;;;;;;11.00;7.00;;;;;25.35;45.69;101106.03;5079223;28;45303;-54
2022/08/19 04:04:07;;;;;;;;;6.75;6.75;;;;;25.35;46.33;101112.19;5077386;28;45412;-54
2022/08/19 04:06:35;;;;;;;;;9.25;8.25;;;;;25.37;46.02;101114.72;5077596;28;46485;-56
2022/08/19 04:09:03;;;;;;;;;7.25;7.25;;;;;25.38;46.41;101108.47;5076918;28;45889;-54
2022/08/19 04:11:33;;;;;;;;;6.00;6.00;;;;;25.37;45.85;101106.78;5077388;28;45390;-53
2022/08/19 04:14:00;;;;;;;;;6.75;6.75;;;;;25.36;45.88;101105.06;5076885;28;45259;-54
2022/08/19 04:16:29;;;;;;;;;8.75;7.25;;;;;25.35;46.19;101100.72;5077312;28;47355;-55
2022/08/19 04:18:59;;;;;;;;;7.75;6.25;;;;;25.33;45.83;101103.50;5076932;28;45865;-56
2022/08/19 04:21:26;;;;;;;;;6.00;6.00;;;;;25.31;45.78;101100.94;5076752;28;45343;-56
2022/08/19 04:23:52;;;;;;;;;7.75;6.50;;;;;25.30;45.97;101104.53;5077255;28;45265;-57
2022/08/19 04:26:22;;;;;;;;;6.00;6.00;;;;;25.30;46.25;101109.03;5076818;28;46154;-55
2022/08/19 04:28:48;;;;;;;;;4.25;4.25;;;;;25.30;45.96;101109.84;5076566;28;45797;-56
2022/08/19 04:31:16;;;;;;;;;6.00;6.00;;;;;25.31;46.18;101110.72;5077596;28;45429;-56
2022/08/19 04:33:42;;;;;;;;;5.25;4.00;;;;;25.29;45.74;101116.16;5077381;28;45174;-55
2022/08/19 04:36:15;;;;;;;;;6.00;6.00;;;;;25.31;46.02;101116.84;5075809;28;46194;-57
2022/08/19 04:38:40;;;;;;;;;6.00;5.75;;;;;25.32;45.85;101118.56;5090956;28;45327;-55
2022/08/19 04:43:50;;;;;;;;;5.00;5.00;;;;;25.31;46.00;101116.84;5076903;28;45315;-53
2022/08/19 04:46:16;;;;;;;;;4.75;4.75;;;;;25.32;46.03;101123.03;5058312;28;47120;-54
2022/08/19 04:48:43;;;;;;;;;6.50;6.00;;;;;25.31;45.91;101122.16;5076813;28;45679;-54
2022/08/19 04:51:12;;;;;;;;;4.50;4.00;;;;;25.30;45.88;101119.63;5076482;28;45237;-52
2022/08/19 04:53:38;;;;;;;;;5.75;5.75;;;;;25.30;46.22;101132.91;5076572;28;45426;-55
2022/08/19 04:56:12;;;;;;;;;5.00;5.00;;;;;25.29;46.00;101132.06;5075041;27;47081;-54
2022/08/19 04:58:42;;;;;;;;;3.25;3.25;;;;;25.29;46.15;101137.38;5076550;28;45484;-54
2022/08/19 05:01:10;;;;;;;;;4.25;4.25;;;;;25.29;46.09;101134.72;5075937;28;45236;-56
2022/08/19 05:03:35;;;;;;;;;3.50;3.50;;;;;25.28;46.03;101133.00;5076481;28;45478;-54
2022/08/19 05:06:10;;;;;;;;;4.75;4.75;;;;;25.29;46.40;101145.31;5076446;28;45422;-54
2022/08/19 05:08:37;;;;;;;;;4.00;3.00;;;;;25.27;46.16;101149.88;5076392;28;45795;-55
2022/08/19 05:11:10;;;;;;;;;3.50;3.25;;;;;25.27;45.97;101147.22;5076250;28;45309;-54
2022/08/19 05:13:36;;;;;;;;;4.25;4.25;;;;;25.28;46.47;101146.28;5079465;28;45405;-54
2022/08/19 05:16:02;;;;;;;;;5.00;3.75;;;;;25.29;45.78;101149.75;5094883;28;46546;-55
2022/08/19 05:23:57;;;;;;;;;4.25;4.00;;;;;25.29;45.98;101150.63;5076528;28;45381;-55
2022/08/19 05:26:23;;;;;;;;;4.50;3.50;;;;;25.29;46.24;101150.63;5075747;28;45510;-54
2022/08/19 05:28:48;;;;;;;;;4.25;4.25;;;;;25.29;46.25;101147.97;5076106;28;45923;-54
2022/08/19 05:31:13;;;;;;;;;4.50;3.75;;;;;25.28;46.65;101162.19;5076024;28;45478;-57
2022/08/19 05:33:39;;;;;;;;;6.00;4.00;;;;;25.27;46.25;101149.88;5076222;28;45164;-57
2022/08/19 05:36:07;;;;;;;;;3.75;3.75;;;;;25.26;46.21;101161.44;5075584;28;47180;-58
2022/08/19 05:38:33;;;;;;;;;3.00;3.00;;;;;25.25;46.70;101156.22;5058083;28;45916;-58
2022/08/19 05:40:58;;;;;;;;;4.00;3.50;;;;;25.24;46.57;101160.72;5057806;28;45366;-58
2022/08/19 05:43:24;;;;;;;;;3.75;3.75;;;;;25.21;46.98;101160.06;5076255;28;45355;-58
2022/08/19 05:45:50;;;;;;;;;3.75;3.00;;;;;25.21;46.17;101160.06;5076249;28;45677;-58
2022/08/19 05:48:17;;;;;;;;;3.00;3.00;;;;;25.18;46.34;101155.84;5090851;28;45858;-58
2022/08/19 05:50:42;;;;;;;;;2.25;2.25;;;;;25.15;46.54;101148.09;5092577;28;44761;-56
2022/08/19 05:53:08;;;;;;;;;4.00;4.00;;;;;25.14;46.58;101149.06;5076444;28;45640;-55
2022/08/19 05:55:34;;;;;;;;;4.50;3.00;;;;;25.12;47.10;101143.88;5076503;28;47168;-57
2022/08/19 05:58:01;;;;;;;;;4.00;4.00;;;;;25.13;46.62;101157.97;5087926;28;45317;-57
2022/08/19 06:00:27;;;;;;;;;4.00;4.00;;;;;25.13;47.27;101155.31;5092469;28;45323;-57
2022/08/19 06:02:54;;;;;;;;;2.75;2.75;;;;;25.11;47.20;101159.88;5089111;28;45225;-57
2022/08/19 06:05:19;;;;;;;;;4.00;3.25;;;;;25.11;46.84;101165.16;5075841;28;46553;-57
2022/08/19 06:07:45;;;;;;;;;2.75;2.75;;;;;25.10;47.26;101182.03;5075774;28;45813;-57
2022/08/19 06:10:11;;;;;;;;;2.50;2.50;;;;;25.08;47.45;101173.38;5057444;28;45343;-58
2022/08/19 06:12:37;;;;;;;;;4.00;3.75;;;;;25.08;47.51;101171.53;5075906;28;45364;-59
2022/08/19 06:15:07;;;;;;;;;2.25;2.25;;;;;25.07;47.63;101174.31;5075204;28;46027;-59
2022/08/19 06:17:34;;;;;;;;;4.50;3.75;;;;;25.00;47.21;101173.88;5075773;28;45613;-58
2022/08/19 06:19:59;;;;;;;;;2.75;2.75;;;;;24.93;48.02;101176.09;5075674;28;45343;-58
2022/08/19 06:22:25;;;;;;;;;2.00;2.00;;;;;24.89;47.91;101182.56;5088081;28;45909;-59
2022/08/19 06:24:53;;;;;;;;;3.25;3.00;;;;;24.83;47.79;101185.66;5099631;27;46268;-58
2022/08/19 06:27:19;;;;;;;;;2.25;2.00;;;;;24.76;48.30;101184.34;5096122;28;45268;-58
2022/08/19 06:29:46;;;;;;;;;4.00;2.00;;;;;24.71;48.53;101184.66;5061831;28;45296;-58
2022/08/19 06:32:14;;;;;;;;;4.00;3.00;;;;;24.65;48.27;101185.06;5078491;28;45503;-59
2022/08/19 06:34:41;;;;;;;;;3.00;3.00;;;;;24.64;48.33;101186.84;5077416;28;47069;-59
2022/08/19 06:37:07;;;;;;;;;2.00;2.00;;;;;24.61;48.40;101187.09;5077546;28;45786;-59
2022/08/19 06:39:36;;;;;;;;;2.75;2.75;;;;;24.58;48.91;101192.56;5083859;28;45472;-59
2022/08/19 06:42:05;;;;;;;;;1.75;1.75;;;;;24.52;48.54;101193.84;5077856;28;45537;-59
2022/08/19 06:44:34;;;;;;;;;4.00;2.75;;;;;24.46;49.00;101190.75;5077843;28;46360;-59
2022/08/19 06:47:02;;;;;;;;;1.75;1.75;;;;;24.42;49.22;101202.50;5077954;28;45686;-59
2022/08/19 06:49:30;;;;;;;;;3.00;2.00;;;;;24.36;49.01;101196.66;5077739;28;45474;-59
2022/08/19 06:51:57;;;;;;;;;3.00;2.75;;;;;24.34;49.40;101198.56;5077377;28;45517;-59
2022/08/19 06:54:23;;;;;;;;;2.25;2.25;;;;;24.35;49.55;101194.97;5077016;28;45473;-58
2022/08/19 06:56:48;;;;;;;;;5.25;3.00;;;;;24.33;49.80;101196.84;5077400;28;45357;-59
2022/08/19 06:59:18;;;;;;;;;2.50;2.50;;;;;24.32;49.43;101194.31;5077625;28;45504;-59
2022/08/19 07:01:49;;;;;;;;;3.00;3.00;;;;;24.30;49.33;101196.22;5077600;28;45501;-58
2022/08/19 07:04:17;;;;;;;;;2.00;2.00;;;;;24.27;49.49;101207.88;5077697;28;45473;-58
2022/08/19 07:06:43;;;;;;;;;2.00;2.00;;;;;24.25;49.31;101201.81;5077546;28;45720;-58
2022/08/19 07:09:12;;;;;;;;;3.00;3.00;;;;;24.24;49.85;101202.75;5077581;28;45630;-58
2022/08/19 07:11:38;;;;;;;;;2.00;2.00;;;;;24.23;49.67;101206.34;5077782;28;45531;-58
2022/08/19 07:14:04;;;;;;;;;4.00;3.00;;;;;24.23;49.92;101206.34;5077005;28;46342;-58
2022/08/19 07:16:29;;;;;;;;;4.00;2.00;;;;;24.23;49.46;101209.88;5077770;28;45446;-58
2022/08/19 07:18:55;;;;;;;;;2.50;2.50;;;;;24.22;50.05;101204.66;5097003;28;45414;-58
2022/08/19 07:21:24;;;;;;;;;3.00;3.00;;;;;24.23;49.56;101216.94;5079863;28;45434;-59
2022/08/19 07:23:50;;;;;;;;;2.00;2.00;;;;;24.20;49.48;101211.84;5076430;28;46635;-59
2022/08/19 07:26:22;;;;;;;;;4.75;4.75;;;;;24.19;49.64;101215.47;5077675;28;45372;-58
2022/08/19 07:28:48;;;;;;;;;3.75;3.00;;;;;24.17;50.08;101218.19;5077155;28;45328;-56
2022/08/19 07:31:18;;;;;;;;;3.00;3.00;;;;;24.15;49.93;101219.25;5059102;28;45455;-57
2022/08/19 07:33:44;;;;;;;;;3.25;2.25;;;;;24.11;49.98;101212.44;5076029;28;46286;-55
2022/08/19 07:36:12;;;;;;;;;3.00;3.00;;;;;24.11;49.88;101215.09;5076864;28;45726;-57
2022/08/19 07:38:42;;;;;;;;;3.00;2.25;;;;;24.09;49.98;101210.75;5077361;28;45221;-57
2022/08/19 07:41:10;;;;;;;;;3.00;3.00;;;;;24.09;50.14;101208.09;5077377;28;45426;-58
2022/08/19 07:43:36;;;;;;;;;2.25;2.25;;;;;24.09;50.57;101205.44;5077195;28;46163;-58
2022/08/19 07:46:01;;;;;;;;;4.00;2.00;;;;;24.09;50.34;101210.75;5077233;28;45292;-58
2022/08/19 07:48:28;;;;;;;;;1.25;1.25;;;;;24.09;50.29;101208.09;5077660;28;45454;-59
2022/08/19 07:50:56;;;;;;;;;3.25;3.25;;;;;24.10;50.40;101208.97;5077698;28;45259;-57
2022/08/19 07:53:24;;;;;;;;;1.25;1.25;;;;;24.09;50.86;101210.75;5077224;28;46734;-59
2022/08/19 07:55:49;;;;;;;;;1.50;1.00;;;;;24.09;50.86;101208.09;5077504;28;45385;-58
2022/08/19 07:58:19;;;;;;;;;1.75;1.75;;;;;24.11;50.46;101207.16;5078101;28;45325;-59
2022/08/19 08:00:46;;;;;;;;;4.00;2.00;;;;;24.11;50.35;101208.03;5082768;28;45495;-59
2022/08/19 08:03:14;;;;;;;;;1.50;1.50;;;;;24.13;50.32;101210.56;5082137;28;46504;-55
2022/08/19 08:11:08;;;;;;;;;2.00;2.00;;;;;24.13;50.44;101210.56;5077279;28;45431;-57
2022/08/19 08:13:37;;;;;;;;;1.50;1.50;;;;;24.15;50.42;101213.97;5077190;28;46192;-57
2022/08/19 08:16:03;;;;;;;;;1.75;1.75;;;;;24.17;50.67;101214.72;5059020;28;45333;-58
2022/08/19 08:18:28;;;;;;;;;1.00;1.00;;;;;24.16;50.37;101215.66;5077366;28;45244;-58
2022/08/19 08:20:55;;;;;;;;;1.50;1.00;;;;;24.15;50.38;101220.09;5081867;28;45443;-58
2022/08/19 08:23:24;;;;;;;;;1.25;1.25;;;;;24.15;50.32;101224.56;5082512;28;46596;-58
2022/08/19 08:25:50;;;;;;;;;2.00;2.00;;;;;24.15;50.53;101227.19;5091486;28;45228;-58
2022/08/19 08:28:17;;;;;;;;;1.00;1.00;;;;;24.09;50.70;101221.34;5091950;28;45268;-61
2022/08/19 08:30:43;;;;;;;;;1.00;1.00;;;;;24.12;50.95;101227.38;5091317;28;45232;-55
2022/08/19 08:33:09;;;;;;;;;2.25;2.25;;;;;24.13;50.32;101231.75;5079933;28;47475;-60
2022/08/19 19:30:57;;;;;;;;;1.50;1.50;;;;;26.18;51.49;101261.19;5036543;28;45377;-55
2022/08/19 19:33:23;;;;;;;;;0.00;0.00;;;;;26.20;51.55;101270.75;5036696;28;47248;-56
2022/08/19 19:35:49;;;;;;;;;1.00;1.00;;;;;26.23;51.65;101277.66;5037025;28;45568;-55
2022/08/19 19:38:14;;;;;;;;;2.25;1.00;;;;;26.21;51.60;101279.56;5037002;28;45439;-55
2022/08/19 19:40:39;;;;;;;;;1.00;1.00;;;;;26.20;51.90;101281.38;5037234;28;45410;-55
2022/08/19 19:43:05;;;;;;;;;2.00;1.00;;;;;26.18;51.63;101277.97;5036422;28;46149;-55
2022/08/19 19:45:30;;;;;;;;;1.00;1.00;;;;;26.16;51.38;101274.59;5036863;28;45387;-57
2022/08/19 19:47:58;;;;;;;;;1.00;1.00;;;;;26.15;51.60;101278.22;5036865;28;45386;-59
2022/08/19 19:50:24;;;;;;;;;0.00;0.00;;;;;26.15;51.59;101280.00;5036657;28;45322;-57
2022/08/19 19:52:49;;;;;;;;;0.50;0.50;;;;;26.12;51.76;101275.78;5036385;28;45389;-56
2022/08/19 19:55:18;;;;;;;;;1.00;1.00;;;;;26.12;51.71;101283.75;5036685;28;45318;-57
2022/08/19 19:57:46;;;;;;;;;2.00;0.50;;;;;26.12;51.71;101285.56;5037217;28;45275;-55
2022/08/19 20:00:14;;;;;;;;;2.50;0.25;;;;;26.09;51.66;101283.91;5037681;28;45365;-55
2022/08/19 20:02:42;;;;;;;;;1.00;1.00;;;;;26.09;51.87;101294.53;5052139;28;45915;-57
2022/08/19 20:05:09;;;;;;;;;1.00;1.00;;;;;26.07;51.82;101277.91;5053873;28;45216;-57
2022/08/19 20:10:18;;;;;;;;;2.00;1.00;;;;;26.04;51.57;101288.72;5038913;28;45331;-58
2022/08/19 20:12:44;;;;;;;;;1.00;0.50;;;;;26.03;51.76;101285.22;5056426;28;45440;-58
2022/08/19 20:15:09;;;;;;;;;1.00;1.00;;;;;26.01;52.19;101286.28;5045495;28;45853;-58
2022/08/19 20:17:41;;;;;;;;;0.00;0.00;;;;;26.00;51.82;101295.22;5036886;28;45357;-57
2022/08/19 20:20:14;;;;;;;;;0.25;0.25;;;;;26.01;51.72;101288.94;5036355;28;45612;-58
2022/08/19 20:22:41;;;;;;;;;1.00;1.00;;;;;25.96;52.00;101289.28;5052064;28;45340;-56
2022/08/19 20:25:10;;;;;;;;;0.75;0.75;;;;;26.00;52.06;101289.91;5048247;28;45176;-58
2022/08/19 20:27:36;;;;;;;;;1.00;1.00;;;;;26.00;52.20;101292.56;5037721;28;45573;-58
2022/08/19 20:30:04;;;;;;;;;0.50;0.50;;;;;26.00;51.59;101296.09;5045316;28;45815;-58
2022/08/19 20:32:30;;;;;;;;;1.00;1.00;;;;;25.99;51.75;101299.69;5048882;28;46388;-59
2022/08/19 20:34:57;;;;;;;;;1.00;0.00;;;;;25.99;51.91;101305.00;5036922;28;45333;-58
2022/08/19 20:37:23;;;;;;;;;1.75;1.00;;;;;25.97;52.30;101314.88;5036922;28;45320;-58
2022/08/19 20:39:49;;;;;;;;;0.50;0.50;;;;;25.97;52.01;101314.88;5046995;28;45703;-58
2022/08/19 20:42:15;;;;;;;;;1.25;1.25;;;;;25.96;52.00;101320.31;5061107;28;45684;-57
2022/08/19 20:44:41;;;;;;;;;2.00;1.00;;;;;25.96;51.84;101328.28;5059862;28;44998;-58
2022/08/19 20:47:06;;;;;;;;;0.25;0.25;;;;;25.95;51.94;101334.56;5049548;28;45837;-58
2022/08/19 20:49:32;;;;;;;;;1.00;1.00;;;;;25.92;51.76;101331.16;5036801;28;45551;-59
2022/08/19 20:51:57;;;;;;;;;2.50;1.00;;;;;25.93;51.27;101331.97;5040572;28;46274;-59
2022/08/19 20:54:23;;;;;;;;;1.00;1.00;;;;;25.92;51.13;101330.28;5035734;28;45508;-58
2022/08/19 20:56:49;;;;;;;;;0.00;0.00;;;;;25.90;51.33;101327.75;5038087;28;45422;-58
2022/08/19 20:59:15;;;;;;;;;1.00;1.00;;;;;25.88;51.27;101329.66;5053131;28;45181;-58
2022/08/19 21:01:40;;;;;;;;;0.50;0.50;;;;;25.87;51.03;101333.25;5051726;28;46058;-58
2022/08/19 21:04:06;;;;;;;;;1.00;1.00;;;;;25.88;51.29;101340.28;5059457;28;44729;-56
2022/08/19 21:06:31;;;;;;;;;1.00;1.00;;;;;25.86;50.86;101339.53;5060034;28;44993;-55
2022/08/19 21:08:56;;;;;;;;;2.00;2.00;;;;;25.85;50.80;101343.13;5042302;28;45208;-59
2022/08/19 21:11:22;;;;;;;;;2.00;2.00;;;;;25.83;50.50;101342.41;5036786;28;45314;-58
2022/08/19 21:13:47;;;;;;;;;1.75;1.75;;;;;25.81;50.85;101344.31;5036117;28;47561;-61
2022/08/19 21:16:12;;;;;;;;;1.00;1.00;;;;;25.81;50.47;101344.31;5035891;28;45430;-58
2022/08/19 21:18:38;;;;;;;;;2.00;2.00;;;;;25.81;50.84;101349.66;5053802;28;44890;-53
2022/08/19 21:21:03;;;;;;;;;2.50;2.50;;;;;25.78;50.67;101353.38;5053804;28;45356;-58
2022/08/19 21:23:30;;;;;;;;;3.00;3.00;;;;;25.78;50.52;101342.75;5034825;28;45397;-58
2022/08/19 21:25:58;;;;;;;;;3.00;3.00;;;;;25.76;50.63;101351.75;5035332;28;45367;-59
2022/08/19 21:28:25;;;;;;;;;3.50;3.25;;;;;25.77;50.58;101356.09;5036133;28;45819;-58
2022/08/19 21:30:57;;;;;;;;;3.00;3.00;;;;;25.77;49.96;101364.06;5038067;28;47147;-58
2022/08/19 21:33:24;;;;;;;;;5.00;3.00;;;;;25.75;49.85;101364.19;5036142;28;45729;-58
2022/08/19 21:35:50;;;;;;;;;3.50;3.00;;;;;25.75;50.25;101363.31;5047481;28;44807;-58
2022/08/19 21:38:15;;;;;;;;;4.00;4.00;;;;;25.75;50.47;101369.50;5038067;28;45220;-58
2022/08/19 21:40:40;;;;;;;;;3.00;3.00;;;;;25.73;50.25;101357.31;5048795;28;46189;-57
2022/08/19 21:43:06;;;;;;;;;4.00;4.00;;;;;25.73;49.87;101357.31;5050108;28;45169;-58
2022/08/19 21:45:32;;;;;;;;;5.00;5.00;;;;;25.72;50.48;101363.56;5059730;28;44883;-54
2022/08/19 21:47:57;;;;;;;;;4.00;4.00;;;;;25.72;50.06;101366.22;5063177;28;44885;-57
2022/08/19 21:50:24;;;;;;;;;3.00;3.00;;;;;25.71;49.74;101367.16;5063119;28;45066;-58
2022/08/19 21:52:50;;;;;;;;;5.00;4.00;;;;;25.69;49.81;101371.72;5061918;28;44993;-56
2022/08/19 21:55:16;;;;;;;;;4.00;2.75;;;;;25.69;49.46;101377.03;5056120;28;45977;-56
2022/08/19 21:57:42;;;;;;;;;2.75;2.75;;;;;25.66;49.32;101378.09;5050895;28;45256;-57
2022/08/19 22:00:14;;;;;;;;;2.75;2.75;;;;;25.64;49.17;101380.00;5042413;28;46514;-58
2022/08/19 22:02:39;;;;;;;;;2.75;2.75;;;;;25.64;48.89;101380.00;5046744;28;45588;-58
2022/08/19 22:05:05;;;;;;;;;4.50;3.50;;;;;25.61;48.99;101381.09;5044917;28;45857;-56
2022/08/19 22:07:30;;;;;;;;;4.00;3.50;;;;;25.59;48.69;101379.47;5043214;28;45543;-57
2022/08/19 22:09:56;;;;;;;;;2.50;2.50;;;;;25.58;48.68;101383.94;5040796;28;46008;-58
2022/08/19 22:12:25;;;;;;;;;2.00;2.00;;;;;25.58;47.70;101381.28;5040028;28;45328;-58
2022/08/19 22:14:51;;;;;;;;;2.00;2.00;;;;;25.56;47.84;101388.50;5058708;28;45471;-57
2022/08/19 22:17:17;;;;;;;;;2.25;1.75;;;;;25.55;47.78;101389.44;5046243;28;45277;-58
2022/08/19 22:19:43;;;;;;;;;2.50;2.50;;;;;25.51;47.56;101389.75;5052170;28;46432;-57
2022/08/19 22:22:09;;;;;;;;;1.50;1.50;;;;;25.52;47.33;101386.16;5045570;28;45365;-53
2022/08/19 22:24:34;;;;;;;;;1.75;1.50;;;;;25.50;47.18;101388.94;5058743;28;44773;-57
2022/08/19 22:27:01;;;;;;;;;6.00;2.00;;;;;25.49;47.13;101395.19;5048425;28;45616;-56
2022/08/19 22:29:26;;;;;;;;;1.25;1.25;;;;;25.47;47.09;101384.66;5043158;28;46224;-55
2022/08/19 22:31:52;;;;;;;;;1.75;1.75;;;;;25.45;46.46;101386.59;5062913;28;45557;-56
2022/08/19 22:34:17;;;;;;;;;2.50;2.00;;;;;25.44;46.82;101387.53;5041735;28;45336;-56